Data for 03/10/2007

Time Sea-Level Adjusted Pressure Absolute Pressure Temperature Relative Humidity Dew Point   
(mb) (inHg) (mb) (inHg) (C) (F) (%) (C) (F)
00:05 1018 30.06 847 25.01 3.9 38.9 55 -4.4 24
00:10 1018 30.06 847 25.01 3.9 39.1 55 -4.4 24.1
00:15 1018 30.06 847 25.01 3.5 38.3 57 -4.2 24.4
00:20 1018 30.06 847 25.01 3.4 38.1 57 -4.4 24.1
00:25 1018 30.06 847 25.01 3.5 38.3 57 -4.3 24.3
00:30 1018 30.06 847 25.01 3.6 38.4 57 -4.2 24.4
00:35 1018 30.06 847 25.01 3.7 38.6 57 -4 24.7
00:40 1018 30.06 847 25.01 3.5 38.3 58 -4 24.8
00:45 1018 30.06 847 25.01 3.4 38.2 58 -4.1 24.6
00:50 1018 30.06 847 25.01 3.3 37.9 58 -4.1 24.6
00:55 1018 30.06 847 25.01 3.2 37.7 59 -4.1 24.5
01:00 1018 30.06 847 25.01 3.3 37.9 57 -4.4 24.2
01:05 1018 30.06 847 25.01 3.4 38.2 59 -3.9 25
01:10 1018 30.06 847 25.01 3.4 38.1 59 -3.8 25.1
01:15 1018 30.06 847 25.01 3.4 38.1 60 -3.7 25.4
01:20 1018 30.06 847 25.01 3.2 37.8 61 -3.7 25.4
01:25 1018 30.06 847 25.01 3.1 37.6 60 -3.8 25.1
01:30 1018 30.06 848 25.04 2.9 37.3 61 -3.7 25.3
01:35 1018 30.06 848 25.04 2.7 36.8 64 -3.5 25.6
01:40 1018 30.06 848 25.04 2.5 36.5 64 -3.6 25.6
01:45 1018 30.06 848 25.04 2.4 36.3 65 -3.5 25.7
01:50 1018 30.06 848 25.04 2.4 36.3 64 -3.7 25.3
01:55 1018 30.06 847 25.01 2.4 36.4 64 -3.6 25.5
02:00 1018 30.06 848 25.04 2.6 36.6 64 -3.5 25.7
02:05 1018 30.06 848 25.04 2.8 37 62 -3.8 25.1
02:10 1018 30.06 848 25.04 3 37.4 61 -3.7 25.3
02:15 1018 30.06 848 25.04 3.1 37.6 61 -3.7 25.3
02:20 1018 30.06 848 25.04 3.2 37.7 61 -3.6 25.4
02:25 1018 30.06 848 25.04 3.3 38 60 -3.6 25.4
02:30 1018 30.06 848 25.04 3.3 37.9 60 -3.7 25.4
02:35 1018 30.06 848 25.04 3.3 38 59 -4 24.9
02:40 1018 30.06 848 25.04 3.3 38 59 -3.9 25
02:45 1018 30.06 848 25.04 3.3 37.9 60 -3.7 25.4
02:50 1019 30.09 848 25.04 3.4 38.1 60 -3.7 25.3
02:55 1019 30.09 848 25.04 3.5 38.3 60 -3.4 25.8
03:00 1019 30.09 848 25.04 3.6 38.4 60 -3.4 25.8
03:05 1019 30.09 848 25.04 3.8 38.8 60 -3.4 25.9
03:10 1019 30.09 848 25.04 3.8 38.9 60 -3.3 26.1
03:15 1019 30.09 848 25.04 3.8 38.9 60 -3.2 26.2
03:20 1019 30.09 848 25.04 3.8 38.9 59 -3.5 25.7
03:25 1019 30.09 848 25.04 4 39.3 59 -3.3 26.1
03:30 1019 30.09 848 25.04 4 39.2 59 -3.3 26.1
03:35 1019 30.09 848 25.04 3.6 38.5 62 -2.9 26.7
03:40 1019 30.09 848 25.04 3.3 38 63 -3 26.7
03:45 1019 30.09 848 25.04 3.1 37.6 65 -2.9 26.8
03:50 1019 30.09 848 25.04 2.7 36.8 68 -2.7 27.1
03:55 1019 30.09 848 25.04 2.6 36.7 66 -3 26.5
04:00 1019 30.09 848 25.04 2.6 36.6 67 -3 26.6
04:05 1019 30.09 848 25.04 2.9 37.1 64 -3.4 26
04:10 1019 30.09 848 25.04 3 37.4 65 -2.9 26.8
04:15 1019 30.09 848 25.04 2.3 36.2 67 -3.2 26.3
04:20 1019 30.09 848 25.04 2.3 36.1 67 -3.3 26
04:25 1019 30.09 848 25.04 2.3 36.2 66 -3.4 25.9
04:30 1019 30.09 848 25.04 2.4 36.3 66 -3.3 26
04:35 1019 30.09 848 25.04 2.4 36.3 66 -3.3 26
04:40 1019 30.09 848 25.04 2.5 36.6 64 -3.5 25.6
04:45 1019 30.09 848 25.04 2.6 36.6 64 -3.6 25.4
04:50 1019 30.09 848 25.04 2.7 36.8 63 -3.6 25.6
04:55 1019 30.09 848 25.04 2.6 36.6 63 -3.7 25.3
05:00 1019 30.09 848 25.04 2.5 36.6 63 -3.9 25.1
05:05 1019 30.09 848 25.04 2.5 36.5 63 -3.8 25.1
05:10 1019 30.09 848 25.04 2.5 36.6 64 -3.6 25.4
05:15 1019 30.09 848 25.04 2 35.6 68 -3.3 26
05:20 1019 30.09 848 25.04 1.7 35.1 68 -3.5 25.6
05:25 1019 30.09 848 25.04 1.7 35.1 69 -3.3 26
05:30 1019 30.09 848 25.04 1.3 34.3 71 -3.5 25.8
05:35 1019 30.09 848 25.04 1.1 34 71 -3.5 25.7
05:40 1019 30.09 848 25.04 0.9 33.7 71 -3.7 25.3
05:45 1019 30.09 848 25.04 0.9 33.6 70 -3.9 25
05:50 1019 30.09 848 25.04 0.9 33.7 71 -3.8 25.2
05:55 1019 30.09 848 25.04 0.8 33.5 71 -3.9 25
06:00 1019 30.09 848 25.04 1 33.8 69 -4.1 24.6
06:05 1019 30.09 848 25.04 1.4 34.5 67 -4 24.7
06:10 1019 30.09 848 25.04 1.4 34.6 68 -3.8 25.1
06:15 1019 30.09 849 25.07 1.2 34.2 68 -4 24.9
06:20 1020 30.12 849 25.07 1.1 34 69 -3.9 24.9
06:25 1020 30.12 849 25.07 1.1 33.9 69 -3.9 25
06:30 1020 30.12 849 25.07 1.1 34.1 68 -4 24.7
06:35 1020 30.12 849 25.07 1.2 34.2 68 -4 24.9
06:40 1020 30.12 849 25.07 1.4 34.5 69 -3.7 25.3
06:45 1020 30.12 849 25.07 1.7 35 66 -4 24.8
06:50 1020 30.12 849 25.07 2 35.6 65 -3.8 25.1
06:55 1020 30.12 849 25.07 2.1 35.7 66 -3.7 25.4
07:00 1020 30.12 849 25.07 2.1 35.8 66 -3.5 25.7
07:05 1020 30.12 849 25.07 1.8 35.3 69 -3.3 26
07:10 1020 30.12 849 25.07 1.3 34.3 70 -3.5 25.7
07:15 1020 30.12 849 25.07 0.9 33.7 71 -3.7 25.4
07:20 1020 30.12 849 25.07 1.1 34 70 -3.8 25.1
07:25 1020 30.12 850 25.1 1.7 35.1 67 -3.8 25.2
07:30 1020 30.12 850 25.1 2 35.6 67 -3.5 25.7
07:35 1021 30.15 850 25.1 2.1 35.8 67 -3.4 25.8
07:40 1021 30.15 850 25.1 1.6 34.8 69 -3.5 25.8
07:45 1021 30.15 850 25.1 1.2 34.2 70 -3.7 25.4
07:50 1021 30.15 850 25.1 1.3 34.3 69 -3.8 25.1
07:55 1021 30.15 850 25.1 1.6 34.9 68 -3.6 25.5
08:00 1021 30.15 850 25.1 1.4 34.6 69 -3.7 25.3
08:05 1021 30.15 850 25.1 1.4 34.5 69 -3.8 25.2
08:10 1021 30.15 850 25.1 1.4 34.6 69 -3.6 25.6
08:15 1021 30.15 850 25.1 1.2 34.2 70 -3.7 25.3
08:20 1021 30.15 850 25.1 1.2 34.2 70 -3.6 25.5
08:25 1021 30.15 850 25.1 1.3 34.4 71 -3.3 26.1
08:30 1021 30.15 850 25.1 1.5 34.7 69 -3.5 25.6
08:35 1021 30.15 850 25.1 1.6 34.9 70 -3.3 26.1
08:40 1021 30.15 850 25.1 1.7 35.1 70 -3.2 26.2
08:45 1021 30.15 851 25.13 1.9 35.4 68 -3.3 26
08:50 1021 30.15 851 25.13 2.1 35.8 67 -3.4 25.9
08:55 1021 30.15 851 25.13 2.3 36.2 66 -3.5 25.7
09:00 1022 30.18 851 25.13 2.6 36.7 63 -3.7 25.3
09:05 1022 30.18 851 25.13 2.9 37.1 62 -3.7 25.3
09:10 1022 30.18 851 25.13 3 37.4 62 -3.5 25.7
09:15 1022 30.18 851 25.13 3.3 37.9 61 -3.6 25.5
09:20 1022 30.18 851 25.13 3.6 38.4 61 -3.2 26.2
09:25 1022 30.18 851 25.13 3.5 38.3 60 -3.6 25.6
09:30 1022 30.18 851 25.13 4.1 39.3 57 -3.7 25.4
09:35 1022 30.18 851 25.13 5.1 41.3 53 -3.6 25.6
09:40 1022 30.18 851 25.13 6.2 43.1 49 -3.6 25.5
09:45 1022 30.18 851 25.13 6.4 43.5 48 -3.8 25.1
09:50 1022 30.18 851 25.13 6.1 42.9 48 -4.1 24.7
09:55 1022 30.18 851 25.13 6.1 42.9 49 -3.8 25.1
10:00 1022 30.18 851 25.13 6.1 43 49 -3.8 25.2
10:05 1022 30.18 851 25.13 6.2 43.1 50 -3.5 25.7
10:10 1022 30.18 851 25.13 6.2 43.1 50 -3.5 25.7
10:15 1022 30.18 851 25.13 6.3 43.3 50 -3.5 25.8
10:20 1022 30.18 851 25.13 6.6 43.9 48 -3.7 25.3
10:25 1022 30.18 851 25.13 7.1 44.8 45 -3.9 25
10:30 1022 30.18 851 25.13 7.9 46.3 45 -3.4 26
10:35 1022 30.18 851 25.13 7.7 45.8 46 -3.1 26.4
10:40 1022 30.18 852 25.16 7.5 45.5 44 -4 24.9
10:45 1022 30.18 852 25.16 8.2 46.8 42 -3.9 25
10:50 1022 30.18 852 25.16 8.1 46.5 43 -3.7 25.4
10:55 1022 30.18 852 25.16 8.5 47.3 42 -3.6 25.5
11:00 1022 30.18 852 25.16 9 48.3 39 -4 24.8
11:05 1022 30.18 852 25.16 9.2 48.6 40 -3.6 25.5
11:10 1023 30.21 852 25.16 8.9 47.9 42 -3.2 26.2
11:15 1023 30.21 852 25.16 8.7 47.6 43 -3.2 26.3
11:20 1023 30.21 852 25.16 8.5 47.4 43 -3.4 25.9
11:25 1023 30.21 852 25.16 8.6 47.4 43 -3.3 26
11:30 1023 30.21 852 25.16 8.3 46.9 45 -2.9 26.8
11:35 1023 30.21 852 25.16 7.4 45.2 46 -3.4 25.9
11:40 1023 30.21 852 25.16 7.9 46.1 44 -3.6 25.5
11:45 1022 30.18 852 25.16 8.2 46.8 44 -3.3 26
11:50 1023 30.21 852 25.16 7.8 46.1 48 -2.6 27.4
11:55 1022 30.18 852 25.16 7.1 44.8 47 -3.3 26.1
12:00 1022 30.18 852 25.16 7.3 45.2 47 -3.1 26.4
12:05 1022 30.18 852 25.16 7.5 45.5 48 -2.9 26.8
12:10 1022 30.18 852 25.16 7.3 45.1 48 -3.1 26.4
12:15 1022 30.18 852 25.16 7.4 45.3 47 -3.1 26.5
12:20 1022 30.18 852 25.16 7.3 45.1 47 -3.3 26
12:25 1022 30.18 852 25.16 7.5 45.6 47 -2.9 26.7
12:30 1022 30.18 852 25.16 7.1 44.7 48 -3.1 26.4
12:35 1022 30.18 852 25.16 7.3 45.1 48 -3.1 26.5
12:40 1022 30.18 851 25.13 7.6 45.7 46 -3.2 26.2
12:45 1022 30.18 851 25.13 8 46.4 45 -3.2 26.2
12:50 1022 30.18 851 25.13 7.8 46 47 -2.8 27
12:55 1022 30.18 851 25.13 7.6 45.7 46 -3.2 26.3
13:00 1022 30.18 851 25.13 7.7 45.9 46 -3.1 26.4
13:05 1022 30.18 851 25.13 8.2 46.7 43 -3.7 25.4
13:10 1022 30.18 851 25.13 8.9 48 43 -2.9 26.7
13:15 1022 30.18 851 25.13 9.4 49 39 -3.6 25.5
13:20 1022 30.18 851 25.13 10.1 50.1 39 -3.2 26.2
13:25 1022 30.18 851 25.13 9.4 48.9 42 -2.9 26.8
13:30 1022 30.18 851 25.13 9.4 49 40 -3.3 26
13:35 1022 30.18 851 25.13 9.7 49.5 41 -2.8 27
13:40 1022 30.18 851 25.13 9.5 49.1 40 -3.2 26.2
13:45 1022 30.18 851 25.13 9.8 49.7 40 -3 26.6
13:50 1022 30.18 851 25.13 9.8 49.6 38 -3.7 25.4
13:55 1022 30.18 851 25.13 9.9 49.8 41 -2.8 27
14:00 1022 30.18 851 25.13 9.4 48.8 41 -3.4 25.9
14:05 1022 30.18 851 25.13 10.2 50.4 38 -3.4 25.8
14:10 1022 30.18 851 25.13 10 50.1 39 -3.3 26
14:15 1022 30.18 851 25.13 10.3 50.5 38 -3.3 26.1
14:20 1022 30.18 851 25.13 10.1 50.2 39 -3.3 26
14:25 1022 30.18 851 25.13 10 50.1 38 -3.6 25.5
14:30 1022 30.18 851 25.13 10.3 50.5 37 -3.7 25.3
14:35 1022 30.18 851 25.13 9.9 49.9 41 -2.8 26.9
14:40 1021 30.15 851 25.13 10.1 50.2 38 -3.5 25.7
14:45 1021 30.15 851 25.13 11.1 51.9 36 -3.6 25.6
14:50 1021 30.15 851 25.13 10.9 51.5 40 -2.1 28.3
14:55 1022 30.18 851 25.13 10.8 51.4 38 -3 26.6
15:00 1022 30.18 851 25.13 10.9 51.5 35 -3.8 25.2
15:05 1022 30.18 851 25.13 10.4 50.7 39 -3 26.6
15:10 1022 30.18 851 25.13 9.9 49.9 38 -3.8 25.2
15:15 1022 30.18 851 25.13 10.3 50.5 38 -3.3 26.1
15:20 1022 30.18 851 25.13 10.2 50.4 37 -3.7 25.3
15:25 1022 30.18 851 25.13 9.8 49.7 39 -3.5 25.7
15:30 1022 30.18 851 25.13 9.7 49.5 38 -3.8 25.2
15:35 1022 30.18 851 25.13 10.5 50.9 36 -3.9 24.9
15:40 1022 30.18 851 25.13 10.4 50.7 36 -3.9 25
15:45 1022 30.18 851 25.13 11 51.7 34 -4.1 24.7
15:50 1022 30.18 851 25.13 11.6 52.9 33 -3.9 24.9
15:55 1022 30.18 851 25.13 11.9 53.4 34 -3.4 25.9
16:00 1022 30.18 851 25.13 11.6 52.8 34 -3.6 25.6
16:05 1022 30.18 851 25.13 11.1 52.1 35 -3.8 25.2
16:10 1022 30.18 851 25.13 10.7 51.2 35 -4.2 24.5
16:15 1022 30.18 851 25.13 10.7 51.2 37 -3.4 25.8
16:20 1022 30.18 851 25.13 11.1 52.1 35 -3.8 25.2
16:25 1022 30.18 851 25.13 11.5 52.6 34 -3.7 25.4
16:30 1022 30.18 851 25.13 11.5 52.7 34 -3.7 25.3
16:35 1022 30.18 851 25.13 10.5 50.9 37 -3.5 25.7
16:40 1022 30.18 851 25.13 11 51.8 34 -4.1 24.6
16:45 1022 30.18 851 25.13 11.5 52.6 35 -3.3 26
16:50 1022 30.18 851 25.13 11 51.7 35 -3.8 25.2
16:55 1022 30.18 851 25.13 10.2 50.3 38 -3.6 25.6
17:00 1022 30.18 851 25.13 10 50 37 -3.8 25.1
17:05 1022 30.18 851 25.13 10 49.9 38 -3.8 25.2
17:10 1022 30.18 851 25.13 9.8 49.6 37 -4 24.8
17:15 1022 30.18 851 25.13 10.1 50.2 36 -4.1 24.6
17:20 1022 30.18 851 25.13 10.6 51 35 -4.2 24.5
17:25 1022 30.18 851 25.13 10.7 51.3 35 -4.1 24.6
17:30 1022 30.18 851 25.13 10.7 51.2 36 -3.9 25
17:35 1022 30.18 851 25.13 10.9 51.5 35 -4 24.8
17:40 1022 30.18 851 25.13 11.1 51.9 35 -3.9 25
17:45 1022 30.18 851 25.13 10.7 51.3 37 -3.5 25.7
17:50 1022 30.18 851 25.13 10.2 50.4 38 -3.3 26.1
17:55 1022 30.18 851 25.13 10 49.9 40 -2.9 26.8
18:00 1022 30.18 851 25.13 10 49.9 39 -3.3 26.1
18:05 1022 30.18 851 25.13 10.1 50.3 39 -3.1 26.4
18:10 1022 30.18 851 25.13 9.5 49.2 41 -2.9 26.7
18:15 1022 30.18 851 25.13 9 48.1 43 -2.9 26.7
18:20 1022 30.18 851 25.13 8.5 47.2 44 -3 26.6
18:25 1022 30.18 851 25.13 8.2 46.8 44 -3.2 26.2
18:30 1022 30.18 851 25.13 8 46.5 46 -2.9 26.7
18:35 1021 30.15 851 25.13 7.6 45.6 46 -3.2 26.2
18:40 1021 30.15 851 25.13 7.2 44.9 47 -3.3 26.1
18:45 1021 30.15 851 25.13 7 44.6 49 -2.9 26.8
18:50 1022 30.18 851 25.13 6.2 43.1 52 -3 26.5
18:55 1022 30.18 851 25.13 6 42.8 53 -3 26.7
19:00 1022 30.18 851 25.13 5.9 42.6 52 -3.2 26.2
19:05 1022 30.18 851 25.13 5.7 42.2 53 -3.2 26.2
19:10 1022 30.18 851 25.13 5.3 41.5 56 -2.8 27
19:15 1022 30.18 851 25.13 4.7 40.4 57 -3 26.5
19:20 1022 30.18 851 25.13 4.5 40.2 57 -3.1 26.3
19:25 1022 30.18 851 25.13 4.4 40 58 -3.2 26.3
19:30 1022 30.18 851 25.13 4.3 39.7 58 -3.3 26
19:35 1022 30.18 851 25.13 4.4 40 57 -3.3 26
19:40 1022 30.18 851 25.13 4.1 39.5 59 -3.2 26.3
19:45 1022 30.18 851 25.13 3.8 38.9 60 -3.3 26.1
19:50 1022 30.18 851 25.13 3.7 38.6 61 -3.2 26.2
19:55 1022 30.18 851 25.13 3.3 38 62 -3.2 26.2
20:00 1022 30.18 851 25.13 3.3 37.9 61 -3.6 25.6
20:05 1022 30.18 851 25.13 3.6 38.4 60 -3.6 25.6
20:10 1022 30.18 851 25.13 4.1 39.3 56 -3.8 25.1
20:15 1022 30.18 851 25.13 4 39.3 58 -3.5 25.8
20:20 1022 30.18 851 25.13 3.5 38.3 60 -3.4 25.8
20:25 1022 30.18 851 25.13 3.3 38 61 -3.4 25.9
20:30 1022 30.18 852 25.16 3.6 38.5 59 -3.7 25.4
20:35 1022 30.18 852 25.16 3.5 38.4 60 -3.5 25.7
20:40 1022 30.18 852 25.16 3.5 38.3 61 -3.4 25.9
20:45 1022 30.18 851 25.13 3.2 37.8 60 -3.7 25.3
20:50 1022 30.18 851 25.13 3.4 38.1 59 -3.8 25.1
20:55 1022 30.18 851 25.13 3.4 38.1 60 -3.6 25.5
21:00 1022 30.18 851 25.13 2.8 37 62 -3.7 25.3
21:05 1022 30.18 851 25.13 2.3 36.2 64 -3.7 25.4
21:10 1022 30.18 851 25.13 2 35.6 65 -3.9 25
21:15 1022 30.18 851 25.13 1.8 35.2 65 -4 24.8
21:20 1022 30.18 851 25.13 2 35.6 63 -4.2 24.5
21:25 1022 30.18 851 25.13 2.2 36 62 -4.3 24.3
21:30 1022 30.18 851 25.13 2.2 36 64 -3.9 24.9
21:35 1022 30.18 851 25.13 2.5 36.5 60 -4.5 23.8
21:40 1022 30.18 851 25.13 3.1 37.7 57 -4.5 23.9
21:45 1022 30.18 851 25.13 3.2 37.8 57 -4.5 24
21:50 1022 30.18 852 25.16 3 37.4 60 -4.1 24.6
21:55 1022 30.18 852 25.16 2.8 37 59 -4.5 23.9
22:00 1023 30.21 852 25.16 2.6 36.6 59 -4.7 23.6
22:05 1023 30.21 852 25.16 2.5 36.5 59 -4.7 23.6
22:10 1023 30.21 852 25.16 2.5 36.5 58 -4.8 23.3
22:15 1023 30.21 852 25.16 2.4 36.3 59 -4.8 23.3
22:20 1023 30.21 852 25.16 2.5 36.6 58 -4.9 23.2
22:25 1023 30.21 852 25.16 2.5 36.5 58 -4.8 23.3
22:30 1023 30.21 852 25.16 2.4 36.4 58 -5 23
22:35 1023 30.21 852 25.16 2.5 36.4 58 -5 23
22:40 1023 30.21 852 25.16 2.6 36.6 57 -5.1 22.8
22:45 1023 30.21 852 25.16 2.2 35.9 62 -4.4 24.1
22:50 1023 30.21 852 25.16 1.6 34.9 61 -5.1 22.9
22:55 1023 30.21 852 25.16 1.9 35.5 59 -5.2 22.6
23:00 1023 30.21 852 25.16 2.1 35.9 58 -5.2 22.6
23:05 1023 30.21 852 25.16 2.3 36.2 59 -4.9 23.1
23:10 1023 30.21 852 25.16 2.2 35.9 59 -5 23
23:15 1023 30.21 852 25.16 2.2 36 58 -5.1 22.8
23:20 1023 30.21 852 25.16 2.8 37.1 55 -5.2 22.6
23:25 1023 30.21 852 25.16 3.4 38.1 52 -5.6 22
23:30 1023 30.21 852 25.16 3.3 37.9 53 -5.3 22.4
23:35 1023 30.21 852 25.16 3.3 38 53 -5.3 22.4
23:40 1023 30.21 852 25.16 3.2 37.7 55 -5.1 22.8
23:45 1023 30.21 852 25.16 3.2 37.7 56 -4.9 23.2
23:50 1023 30.21 852 25.16 2.9 37.3 57 -4.7 23.5
23:55 1023 30.21 852 25.16 2.7 36.9 57 -4.9 23.2
24:00 1022 30.18 852 25.16 2.8 37 56 -5.2 22.6